sensor_id;sensor_type;location;lat;lon;timestamp;P1;durP1;ratioP1;P2;durP2;ratioP2
14235;SDS011;7202;50.718;7.072;2022-11-20T00:01:36;23.40;;;16.00;;
14235;SDS011;7202;50.718;7.072;2022-11-20T00:04:04;24.95;;;15.65;;
14235;SDS011;7202;50.718;7.072;2022-11-20T00:06:34;25.02;;;15.40;;
14235;SDS011;7202;50.718;7.072;2022-11-20T00:09:03;25.23;;;15.90;;
14235;SDS011;7202;50.718;7.072;2022-11-20T00:11:32;23.02;;;14.98;;
14235;SDS011;7202;50.718;7.072;2022-11-20T00:14:00;24.60;;;15.27;;
14235;SDS011;7202;50.718;7.072;2022-11-20T00:16:31;22.98;;;15.13;;
14235;SDS011;7202;50.718;7.072;2022-11-20T00:19:00;27.58;;;16.05;;
14235;SDS011;7202;50.718;7.072;2022-11-20T00:21:29;24.38;;;15.23;;
14235;SDS011;7202;50.718;7.072;2022-11-20T00:23:59;24.08;;;15.98;;
14235;SDS011;7202;50.718;7.072;2022-11-20T00:26:28;26.30;;;16.27;;
14235;SDS011;7202;50.718;7.072;2022-11-20T00:28:58;26.27;;;15.60;;
14235;SDS011;7202;50.718;7.072;2022-11-20T00:31:28;23.55;;;15.60;;
14235;SDS011;7202;50.718;7.072;2022-11-20T00:33:57;23.67;;;14.38;;
14235;SDS011;7202;50.718;7.072;2022-11-20T00:36:26;24.63;;;15.60;;
14235;SDS011;7202;50.718;7.072;2022-11-20T00:38:56;23.70;;;15.57;;
14235;SDS011;7202;50.718;7.072;2022-11-20T00:41:28;25.92;;;15.90;;
14235;SDS011;7202;50.718;7.072;2022-11-20T00:43:57;25.25;;;15.80;;
14235;SDS011;7202;50.718;7.072;2022-11-20T00:46:26;24.80;;;15.93;;
14235;SDS011;7202;50.718;7.072;2022-11-20T00:48:55;25.67;;;16.33;;
14235;SDS011;7202;50.718;7.072;2022-11-20T00:51:26;23.90;;;15.90;;
14235;SDS011;7202;50.718;7.072;2022-11-20T00:53:55;26.58;;;16.15;;
14235;SDS011;7202;50.718;7.072;2022-11-20T00:56:24;22.40;;;14.88;;
14235;SDS011;7202;50.718;7.072;2022-11-20T00:58:54;25.27;;;15.80;;
14235;SDS011;7202;50.718;7.072;2022-11-20T01:01:23;26.30;;;16.80;;
14235;SDS011;7202;50.718;7.072;2022-11-20T01:03:55;24.45;;;14.90;;
14235;SDS011;7202;50.718;7.072;2022-11-20T01:06:26;23.23;;;15.82;;
14235;SDS011;7202;50.718;7.072;2022-11-20T01:08:57;24.38;;;16.40;;
14235;SDS011;7202;50.718;7.072;2022-11-20T01:11:28;24.00;;;15.95;;
14235;SDS011;7202;50.718;7.072;2022-11-20T01:13:59;24.55;;;16.02;;
14235;SDS011;7202;50.718;7.072;2022-11-20T01:16:30;23.75;;;16.27;;
14235;SDS011;7202;50.718;7.072;2022-11-20T01:19:00;24.42;;;15.57;;
14235;SDS011;7202;50.718;7.072;2022-11-20T01:21:31;26.08;;;15.73;;
14235;SDS011;7202;50.718;7.072;2022-11-20T01:24:01;24.58;;;15.95;;
14235;SDS011;7202;50.718;7.072;2022-11-20T01:26:32;22.42;;;15.02;;
14235;SDS011;7202;50.718;7.072;2022-11-20T01:29:04;27.17;;;16.17;;
14235;SDS011;7202;50.718;7.072;2022-11-20T01:31:33;27.90;;;16.73;;
14235;SDS011;7202;50.718;7.072;2022-11-20T01:34:05;26.63;;;16.58;;
14235;SDS011;7202;50.718;7.072;2022-11-20T01:36:35;26.92;;;16.67;;
14235;SDS011;7202;50.718;7.072;2022-11-20T01:39:06;25.88;;;15.85;;
14235;SDS011;7202;50.718;7.072;2022-11-20T01:41:37;26.40;;;16.98;;
14235;SDS011;7202;50.718;7.072;2022-11-20T01:47:19;24.65;;;16.15;;
14235;SDS011;7202;50.718;7.072;2022-11-20T01:49:51;27.23;;;15.80;;
14235;SDS011;7202;50.718;7.072;2022-11-20T01:52:24;23.10;;;16.33;;
14235;SDS011;7202;50.718;7.072;2022-11-20T01:54:59;24.73;;;15.98;;
14235;SDS011;7202;50.718;7.072;2022-11-20T01:57:31;23.58;;;15.80;;
14235;SDS011;7202;50.718;7.072;2022-11-20T02:00:05;25.02;;;15.77;;
14235;SDS011;7202;50.718;7.072;2022-11-20T02:02:39;23.80;;;15.52;;
14235;SDS011;7202;50.718;7.072;2022-11-20T02:05:12;23.20;;;15.80;;
14235;SDS011;7202;50.718;7.072;2022-11-20T02:07:48;25.65;;;16.05;;
14235;SDS011;7202;50.718;7.072;2022-11-20T02:10:17;24.48;;;15.52;;
14235;SDS011;7202;50.718;7.072;2022-11-20T02:12:46;24.42;;;15.55;;
14235;SDS011;7202;50.718;7.072;2022-11-20T02:15:34;23.75;;;15.60;;
14235;SDS011;7202;50.718;7.072;2022-11-20T02:18:03;24.23;;;15.63;;
14235;SDS011;7202;50.718;7.072;2022-11-20T02:20:33;25.38;;;15.85;;
14235;SDS011;7202;50.718;7.072;2022-11-20T02:23:02;22.17;;;14.70;;
14235;SDS011;7202;50.718;7.072;2022-11-20T02:25:34;25.77;;;16.35;;
14235;SDS011;7202;50.718;7.072;2022-11-20T02:28:04;24.55;;;15.48;;
14235;SDS011;7202;50.718;7.072;2022-11-20T02:30:33;25.65;;;15.35;;
14235;SDS011;7202;50.718;7.072;2022-11-20T02:33:02;25.20;;;15.15;;
14235;SDS011;7202;50.718;7.072;2022-11-20T02:35:41;24.67;;;15.90;;
14235;SDS011;7202;50.718;7.072;2022-11-20T02:38:11;22.45;;;14.50;;
14235;SDS011;7202;50.718;7.072;2022-11-20T02:40:43;23.00;;;15.15;;
14235;SDS011;7202;50.718;7.072;2022-11-20T02:43:11;24.75;;;15.85;;
14235;SDS011;7202;50.718;7.072;2022-11-20T02:45:40;26.42;;;15.90;;
14235;SDS011;7202;50.718;7.072;2022-11-20T02:48:08;25.50;;;15.02;;
14235;SDS011;7202;50.718;7.072;2022-11-20T02:50:37;25.75;;;16.05;;
14235;SDS011;7202;50.718;7.072;2022-11-20T02:53:07;25.95;;;15.73;;
14235;SDS011;7202;50.718;7.072;2022-11-20T02:55:35;22.35;;;15.13;;
14235;SDS011;7202;50.718;7.072;2022-11-20T02:58:06;23.63;;;14.23;;
14235;SDS011;7202;50.718;7.072;2022-11-20T03:00:34;22.98;;;15.30;;
14235;SDS011;7202;50.718;7.072;2022-11-20T03:03:03;22.20;;;14.80;;
14235;SDS011;7202;50.718;7.072;2022-11-20T03:05:32;26.20;;;16.50;;
14235;SDS011;7202;50.718;7.072;2022-11-20T03:08:01;21.75;;;14.52;;
14235;SDS011;7202;50.718;7.072;2022-11-20T03:10:30;23.65;;;15.60;;
14235;SDS011;7202;50.718;7.072;2022-11-20T03:12:58;27.17;;;16.42;;
14235;SDS011;7202;50.718;7.072;2022-11-20T03:15:31;25.45;;;15.57;;
14235;SDS011;7202;50.718;7.072;2022-11-20T03:17:59;23.65;;;14.98;;
14235;SDS011;7202;50.718;7.072;2022-11-20T03:20:28;25.65;;;16.13;;
14235;SDS011;7202;50.718;7.072;2022-11-20T03:22:56;26.95;;;16.88;;
14235;SDS011;7202;50.718;7.072;2022-11-20T03:25:25;27.40;;;16.55;;
14235;SDS011;7202;50.718;7.072;2022-11-20T03:27:54;26.23;;;16.67;;
14235;SDS011;7202;50.718;7.072;2022-11-20T03:30:22;30.00;;;17.23;;
14235;SDS011;7202;50.718;7.072;2022-11-20T03:32:57;26.75;;;16.55;;
14235;SDS011;7202;50.718;7.072;2022-11-20T03:35:26;29.20;;;17.45;;
14235;SDS011;7202;50.718;7.072;2022-11-20T03:37:55;29.75;;;17.15;;
14235;SDS011;7202;50.718;7.072;2022-11-20T03:40:24;29.40;;;17.63;;
14235;SDS011;7202;50.718;7.072;2022-11-20T03:42:53;29.15;;;17.75;;
14235;SDS011;7202;50.718;7.072;2022-11-20T03:45:22;27.48;;;17.00;;
14235;SDS011;7202;50.718;7.072;2022-11-20T03:47:50;30.50;;;17.65;;
14235;SDS011;7202;50.718;7.072;2022-11-20T03:50:20;32.83;;;18.17;;
14235;SDS011;7202;50.718;7.072;2022-11-20T03:52:48;27.35;;;16.58;;
14235;SDS011;7202;50.718;7.072;2022-11-20T03:55:17;29.13;;;17.15;;
14235;SDS011;7202;50.718;7.072;2022-11-20T03:57:45;25.50;;;16.30;;
14235;SDS011;7202;50.718;7.072;2022-11-20T04:00:14;27.17;;;16.45;;
14235;SDS011;7202;50.718;7.072;2022-11-20T04:02:43;27.33;;;16.17;;
14235;SDS011;7202;50.718;7.072;2022-11-20T04:05:12;27.13;;;17.05;;
14235;SDS011;7202;50.718;7.072;2022-11-20T04:07:42;27.48;;;16.63;;
14235;SDS011;7202;50.718;7.072;2022-11-20T04:10:10;26.55;;;16.27;;
14235;SDS011;7202;50.718;7.072;2022-11-20T04:12:39;30.88;;;17.77;;
14235;SDS011;7202;50.718;7.072;2022-11-20T04:15:08;27.70;;;17.20;;
14235;SDS011;7202;50.718;7.072;2022-11-20T04:17:37;30.60;;;17.13;;
14235;SDS011;7202;50.718;7.072;2022-11-20T04:20:06;30.00;;;17.73;;
14235;SDS011;7202;50.718;7.072;2022-11-20T04:22:35;27.77;;;16.15;;
14235;SDS011;7202;50.718;7.072;2022-11-20T04:25:05;32.72;;;17.55;;
14235;SDS011;7202;50.718;7.072;2022-11-20T04:27:34;31.85;;;18.27;;
14235;SDS011;7202;50.718;7.072;2022-11-20T04:30:03;31.30;;;17.60;;
14235;SDS011;7202;50.718;7.072;2022-11-20T04:32:33;33.80;;;17.30;;
14235;SDS011;7202;50.718;7.072;2022-11-20T04:35:01;31.27;;;17.13;;
14235;SDS011;7202;50.718;7.072;2022-11-20T04:37:30;32.50;;;17.60;;
14235;SDS011;7202;50.718;7.072;2022-11-20T04:39:58;32.97;;;17.45;;
14235;SDS011;7202;50.718;7.072;2022-11-20T04:42:28;31.63;;;16.90;;
14235;SDS011;7202;50.718;7.072;2022-11-20T04:44:57;34.72;;;18.58;;
14235;SDS011;7202;50.718;7.072;2022-11-20T04:47:25;32.75;;;18.63;;
14235;SDS011;7202;50.718;7.072;2022-11-20T04:49:54;33.30;;;18.52;;
14235;SDS011;7202;50.718;7.072;2022-11-20T04:52:22;31.58;;;18.05;;
14235;SDS011;7202;50.718;7.072;2022-11-20T04:54:51;31.00;;;17.52;;
14235;SDS011;7202;50.718;7.072;2022-11-20T04:57:20;33.70;;;18.48;;
14235;SDS011;7202;50.718;7.072;2022-11-20T04:59:50;34.35;;;19.38;;
14235;SDS011;7202;50.718;7.072;2022-11-20T05:02:19;33.15;;;17.73;;
14235;SDS011;7202;50.718;7.072;2022-11-20T05:04:48;32.35;;;17.50;;
14235;SDS011;7202;50.718;7.072;2022-11-20T05:07:17;29.95;;;17.83;;
14235;SDS011;7202;50.718;7.072;2022-11-20T05:09:45;28.70;;;17.02;;
14235;SDS011;7202;50.718;7.072;2022-11-20T05:12:14;28.73;;;17.38;;
14235;SDS011;7202;50.718;7.072;2022-11-20T05:14:42;27.35;;;16.67;;
14235;SDS011;7202;50.718;7.072;2022-11-20T05:17:13;33.33;;;17.88;;
14235;SDS011;7202;50.718;7.072;2022-11-20T05:19:41;34.10;;;16.92;;
14235;SDS011;7202;50.718;7.072;2022-11-20T05:22:10;31.38;;;17.92;;
14235;SDS011;7202;50.718;7.072;2022-11-20T05:24:38;31.10;;;17.10;;
14235;SDS011;7202;50.718;7.072;2022-11-20T05:27:07;28.10;;;17.17;;
14235;SDS011;7202;50.718;7.072;2022-11-20T05:29:35;29.35;;;17.15;;
14235;SDS011;7202;50.718;7.072;2022-11-20T05:32:04;30.45;;;16.98;;
14235;SDS011;7202;50.718;7.072;2022-11-20T05:34:37;31.85;;;17.35;;
14235;SDS011;7202;50.718;7.072;2022-11-20T05:37:05;27.92;;;16.33;;
14235;SDS011;7202;50.718;7.072;2022-11-20T05:39:34;31.30;;;16.92;;
14235;SDS011;7202;50.718;7.072;2022-11-20T05:42:02;30.23;;;17.35;;
14235;SDS011;7202;50.718;7.072;2022-11-20T05:44:49;30.33;;;17.17;;
14235;SDS011;7202;50.718;7.072;2022-11-20T05:47:17;29.88;;;17.42;;
14235;SDS011;7202;50.718;7.072;2022-11-20T05:49:47;30.45;;;17.38;;
14235;SDS011;7202;50.718;7.072;2022-11-20T05:52:16;31.55;;;17.30;;
14235;SDS011;7202;50.718;7.072;2022-11-20T05:54:44;32.33;;;16.92;;
14235;SDS011;7202;50.718;7.072;2022-11-20T05:57:13;33.13;;;17.70;;
14235;SDS011;7202;50.718;7.072;2022-11-20T05:59:41;32.42;;;18.55;;
14235;SDS011;7202;50.718;7.072;2022-11-20T06:02:10;32.88;;;17.85;;
14235;SDS011;7202;50.718;7.072;2022-11-20T06:04:39;30.95;;;17.38;;
14235;SDS011;7202;50.718;7.072;2022-11-20T06:07:09;33.03;;;17.77;;
14235;SDS011;7202;50.718;7.072;2022-11-20T06:09:38;37.95;;;19.40;;
14235;SDS011;7202;50.718;7.072;2022-11-20T06:12:06;33.58;;;18.02;;
14235;SDS011;7202;50.718;7.072;2022-11-20T06:14:35;37.67;;;19.17;;
14235;SDS011;7202;50.718;7.072;2022-11-20T06:17:04;32.95;;;18.63;;
14235;SDS011;7202;50.718;7.072;2022-11-20T06:19:32;35.28;;;19.40;;
14235;SDS011;7202;50.718;7.072;2022-11-20T06:22:01;32.03;;;17.27;;
14235;SDS011;7202;50.718;7.072;2022-11-20T06:24:30;31.98;;;18.23;;
14235;SDS011;7202;50.718;7.072;2022-11-20T06:26:59;31.80;;;17.92;;
14235;SDS011;7202;50.718;7.072;2022-11-20T06:29:27;33.53;;;18.40;;
14235;SDS011;7202;50.718;7.072;2022-11-20T06:32:00;33.00;;;18.17;;
14235;SDS011;7202;50.718;7.072;2022-11-20T06:34:28;32.53;;;18.25;;
14235;SDS011;7202;50.718;7.072;2022-11-20T06:36:57;33.40;;;17.55;;
14235;SDS011;7202;50.718;7.072;2022-11-20T06:39:25;33.83;;;17.92;;
14235;SDS011;7202;50.718;7.072;2022-11-20T06:41:55;33.28;;;18.55;;
14235;SDS011;7202;50.718;7.072;2022-11-20T06:44:25;32.35;;;18.17;;
14235;SDS011;7202;50.718;7.072;2022-11-20T06:46:53;31.52;;;18.27;;
14235;SDS011;7202;50.718;7.072;2022-11-20T06:49:24;34.03;;;18.20;;
14235;SDS011;7202;50.718;7.072;2022-11-20T06:51:53;35.35;;;18.15;;
14235;SDS011;7202;50.718;7.072;2022-11-20T06:54:22;34.15;;;18.38;;
14235;SDS011;7202;50.718;7.072;2022-11-20T06:56:50;31.33;;;17.85;;
14235;SDS011;7202;50.718;7.072;2022-11-20T06:59:20;32.97;;;17.42;;
14235;SDS011;7202;50.718;7.072;2022-11-20T07:01:49;28.40;;;16.38;;
14235;SDS011;7202;50.718;7.072;2022-11-20T07:04:18;30.83;;;18.00;;
14235;SDS011;7202;50.718;7.072;2022-11-20T07:06:46;31.20;;;17.42;;
14235;SDS011;7202;50.718;7.072;2022-11-20T07:09:15;28.60;;;16.88;;
14235;SDS011;7202;50.718;7.072;2022-11-20T07:11:44;31.05;;;17.23;;
14235;SDS011;7202;50.718;7.072;2022-11-20T07:14:13;27.98;;;17.15;;
14235;SDS011;7202;50.718;7.072;2022-11-20T07:16:42;27.48;;;16.60;;
14235;SDS011;7202;50.718;7.072;2022-11-20T07:19:11;29.15;;;17.15;;
14235;SDS011;7202;50.718;7.072;2022-11-20T07:21:39;27.00;;;16.75;;
14235;SDS011;7202;50.718;7.072;2022-11-20T07:24:08;27.33;;;17.20;;
14235;SDS011;7202;50.718;7.072;2022-11-20T07:26:36;27.50;;;16.08;;
14235;SDS011;7202;50.718;7.072;2022-11-20T07:29:05;30.35;;;16.60;;
14235;SDS011;7202;50.718;7.072;2022-11-20T07:31:34;26.05;;;15.85;;
14235;SDS011;7202;50.718;7.072;2022-11-20T07:34:04;26.00;;;15.95;;
14235;SDS011;7202;50.718;7.072;2022-11-20T07:36:33;27.92;;;15.80;;
14235;SDS011;7202;50.718;7.072;2022-11-20T07:39:01;27.17;;;16.02;;
14235;SDS011;7202;50.718;7.072;2022-11-20T07:41:30;27.63;;;16.02;;
14235;SDS011;7202;50.718;7.072;2022-11-20T07:43:59;24.23;;;15.00;;
14235;SDS011;7202;50.718;7.072;2022-11-20T07:46:27;24.75;;;15.35;;
14235;SDS011;7202;50.718;7.072;2022-11-20T07:48:56;26.95;;;16.25;;
14235;SDS011;7202;50.718;7.072;2022-11-20T07:51:26;23.48;;;15.73;;
14235;SDS011;7202;50.718;7.072;2022-11-20T07:53:56;25.92;;;15.73;;
14235;SDS011;7202;50.718;7.072;2022-11-20T07:56:24;24.77;;;15.40;;
14235;SDS011;7202;50.718;7.072;2022-11-20T07:58:53;25.52;;;15.23;;
14235;SDS011;7202;50.718;7.072;2022-11-20T08:01:22;22.85;;;14.45;;
14235;SDS011;7202;50.718;7.072;2022-11-20T08:03:50;22.48;;;14.45;;
14235;SDS011;7202;50.718;7.072;2022-11-20T08:06:19;26.30;;;15.93;;
14235;SDS011;7202;50.718;7.072;2022-11-20T08:08:49;26.92;;;17.05;;
14235;SDS011;7202;50.718;7.072;2022-11-20T08:11:17;24.45;;;16.45;;
14235;SDS011;7202;50.718;7.072;2022-11-20T08:14:03;24.92;;;15.85;;
14235;SDS011;7202;50.718;7.072;2022-11-20T08:16:41;24.08;;;16.10;;
14235;SDS011;7202;50.718;7.072;2022-11-20T08:19:11;27.05;;;16.58;;
14235;SDS011;7202;50.718;7.072;2022-11-20T08:21:41;24.63;;;15.65;;
14235;SDS011;7202;50.718;7.072;2022-11-20T08:24:11;26.92;;;16.33;;
14235;SDS011;7202;50.718;7.072;2022-11-20T08:26:40;23.10;;;16.02;;
14235;SDS011;7202;50.718;7.072;2022-11-20T08:29:09;24.65;;;17.15;;
14235;SDS011;7202;50.718;7.072;2022-11-20T08:31:37;25.63;;;16.13;;
14235;SDS011;7202;50.718;7.072;2022-11-20T08:34:06;28.70;;;16.90;;
14235;SDS011;7202;50.718;7.072;2022-11-20T08:36:36;25.30;;;16.40;;
14235;SDS011;7202;50.718;7.072;2022-11-20T08:39:05;28.90;;;17.08;;
14235;SDS011;7202;50.718;7.072;2022-11-20T08:41:35;29.05;;;17.55;;
14235;SDS011;7202;50.718;7.072;2022-11-20T08:44:04;28.17;;;16.85;;
14235;SDS011;7202;50.718;7.072;2022-11-20T08:46:34;27.60;;;17.05;;
14235;SDS011;7202;50.718;7.072;2022-11-20T08:49:05;27.02;;;17.20;;
14235;SDS011;7202;50.718;7.072;2022-11-20T08:51:34;27.27;;;17.17;;
14235;SDS011;7202;50.718;7.072;2022-11-20T08:54:03;27.30;;;17.58;;
14235;SDS011;7202;50.718;7.072;2022-11-20T08:56:33;29.95;;;18.00;;
14235;SDS011;7202;50.718;7.072;2022-11-20T08:59:03;29.52;;;17.95;;
14235;SDS011;7202;50.718;7.072;2022-11-20T09:01:52;31.67;;;17.83;;
14235;SDS011;7202;50.718;7.072;2022-11-20T09:04:21;32.88;;;18.63;;
14235;SDS011;7202;50.718;7.072;2022-11-20T09:06:49;30.65;;;19.33;;
14235;SDS011;7202;50.718;7.072;2022-11-20T09:09:18;30.30;;;18.23;;
14235;SDS011;7202;50.718;7.072;2022-11-20T09:11:49;29.02;;;17.40;;
14235;SDS011;7202;50.718;7.072;2022-11-20T09:14:18;25.55;;;17.10;;
14235;SDS011;7202;50.718;7.072;2022-11-20T09:16:46;32.25;;;18.67;;
14235;SDS011;7202;50.718;7.072;2022-11-20T09:19:15;31.67;;;18.75;;
14235;SDS011;7202;50.718;7.072;2022-11-20T09:22:01;33.50;;;19.83;;
14235;SDS011;7202;50.718;7.072;2022-11-20T09:24:30;30.33;;;19.00;;
14235;SDS011;7202;50.718;7.072;2022-11-20T09:27:02;36.00;;;19.55;;
14235;SDS011;7202;50.718;7.072;2022-11-20T09:29:38;31.10;;;17.40;;
14235;SDS011;7202;50.718;7.072;2022-11-20T09:32:07;29.13;;;17.73;;
14235;SDS011;7202;50.718;7.072;2022-11-20T09:34:35;30.92;;;18.60;;
14235;SDS011;7202;50.718;7.072;2022-11-20T09:37:04;30.92;;;18.42;;
14235;SDS011;7202;50.718;7.072;2022-11-20T09:39:33;27.98;;;17.67;;
14235;SDS011;7202;50.718;7.072;2022-11-20T09:42:20;31.27;;;16.83;;
14235;SDS011;7202;50.718;7.072;2022-11-20T09:45:03;26.17;;;15.85;;
14235;SDS011;7202;50.718;7.072;2022-11-20T09:47:47;26.75;;;16.42;;
14235;SDS011;7202;50.718;7.072;2022-11-20T09:50:30;27.00;;;15.30;;
14235;SDS011;7202;50.718;7.072;2022-11-20T09:53:08;26.58;;;15.95;;
14235;SDS011;7202;50.718;7.072;2022-11-20T09:55:41;29.33;;;16.58;;
14235;SDS011;7202;50.718;7.072;2022-11-20T09:58:15;23.27;;;14.57;;
14235;SDS011;7202;50.718;7.072;2022-11-20T10:00:52;25.63;;;15.25;;
14235;SDS011;7202;50.718;7.072;2022-11-20T10:03:35;24.80;;;14.63;;
14235;SDS011;7202;50.718;7.072;2022-11-20T10:06:10;25.60;;;14.73;;
14235;SDS011;7202;50.718;7.072;2022-11-20T10:08:43;25.25;;;14.70;;
14235;SDS011;7202;50.718;7.072;2022-11-20T10:11:17;26.13;;;15.07;;
14235;SDS011;7202;50.718;7.072;2022-11-20T10:13:55;22.27;;;14.57;;
14235;SDS011;7202;50.718;7.072;2022-11-20T10:16:32;20.73;;;13.93;;
14235;SDS011;7202;50.718;7.072;2022-11-20T10:19:20;24.33;;;14.23;;
14235;SDS011;7202;50.718;7.072;2022-11-20T10:22:00;22.88;;;14.00;;
14235;SDS011;7202;50.718;7.072;2022-11-20T10:24:41;24.27;;;14.15;;
14235;SDS011;7202;50.718;7.072;2022-11-20T10:27:23;21.48;;;13.45;;
14235;SDS011;7202;50.718;7.072;2022-11-20T10:30:14;22.23;;;13.63;;
14235;SDS011;7202;50.718;7.072;2022-11-20T10:32:46;22.45;;;13.40;;
14235;SDS011;7202;50.718;7.072;2022-11-20T10:35:19;24.52;;;14.15;;
14235;SDS011;7202;50.718;7.072;2022-11-20T10:37:53;23.15;;;13.88;;
14235;SDS011;7202;50.718;7.072;2022-11-20T10:40:28;22.10;;;13.43;;
14235;SDS011;7202;50.718;7.072;2022-11-20T10:43:04;21.92;;;14.02;;
14235;SDS011;7202;50.718;7.072;2022-11-20T10:45:45;22.88;;;13.75;;
14235;SDS011;7202;50.718;7.072;2022-11-20T10:48:21;23.80;;;13.63;;
14235;SDS011;7202;50.718;7.072;2022-11-20T10:51:03;19.75;;;12.63;;
14235;SDS011;7202;50.718;7.072;2022-11-20T10:53:45;21.88;;;13.07;;
14235;SDS011;7202;50.718;7.072;2022-11-20T10:56:22;25.52;;;13.63;;
14235;SDS011;7202;50.718;7.072;2022-11-20T11:01:56;21.33;;;12.35;;
14235;SDS011;7202;50.718;7.072;2022-11-20T11:04:32;20.70;;;12.98;;
14235;SDS011;7202;50.718;7.072;2022-11-20T11:07:06;20.90;;;12.50;;
14235;SDS011;7202;50.718;7.072;2022-11-20T11:09:39;19.50;;;12.23;;
14235;SDS011;7202;50.718;7.072;2022-11-20T11:12:11;22.65;;;13.43;;
14235;SDS011;7202;50.718;7.072;2022-11-20T11:14:44;20.63;;;12.38;;
14235;SDS011;7202;50.718;7.072;2022-11-20T11:17:22;19.77;;;12.95;;
14235;SDS011;7202;50.718;7.072;2022-11-20T11:19:58;19.42;;;12.35;;
14235;SDS011;7202;50.718;7.072;2022-11-20T11:22:43;19.55;;;11.98;;
14235;SDS011;7202;50.718;7.072;2022-11-20T11:25:20;20.15;;;12.27;;
14235;SDS011;7202;50.718;7.072;2022-11-20T11:27:56;20.95;;;13.13;;
14235;SDS011;7202;50.718;7.072;2022-11-20T11:30:27;20.65;;;12.82;;
14235;SDS011;7202;50.718;7.072;2022-11-20T11:33:09;22.33;;;13.02;;
14235;SDS011;7202;50.718;7.072;2022-11-20T11:35:43;19.75;;;12.65;;
14235;SDS011;7202;50.718;7.072;2022-11-20T11:38:18;19.60;;;12.52;;
14235;SDS011;7202;50.718;7.072;2022-11-20T11:40:52;21.70;;;13.00;;
14235;SDS011;7202;50.718;7.072;2022-11-20T11:43:24;20.75;;;12.65;;
14235;SDS011;7202;50.718;7.072;2022-11-20T11:46:23;19.40;;;12.50;;
14235;SDS011;7202;50.718;7.072;2022-11-20T11:48:57;21.63;;;13.50;;
14235;SDS011;7202;50.718;7.072;2022-11-20T11:51:28;21.95;;;12.75;;
14235;SDS011;7202;50.718;7.072;2022-11-20T11:54:05;24.60;;;13.85;;
14235;SDS011;7202;50.718;7.072;2022-11-20T11:56:43;25.17;;;13.20;;
14235;SDS011;7202;50.718;7.072;2022-11-20T11:59:14;22.40;;;13.55;;
14235;SDS011;7202;50.718;7.072;2022-11-20T12:01:47;21.08;;;14.07;;
14235;SDS011;7202;50.718;7.072;2022-11-20T12:04:24;21.85;;;13.70;;
14235;SDS011;7202;50.718;7.072;2022-11-20T12:07:07;23.70;;;13.98;;
14235;SDS011;7202;50.718;7.072;2022-11-20T12:10:03;25.48;;;14.60;;
14235;SDS011;7202;50.718;7.072;2022-11-20T12:12:35;23.35;;;14.85;;
14235;SDS011;7202;50.718;7.072;2022-11-20T12:15:08;23.52;;;15.13;;
14235;SDS011;7202;50.718;7.072;2022-11-20T12:17:41;27.27;;;15.88;;
14235;SDS011;7202;50.718;7.072;2022-11-20T12:20:13;25.73;;;15.00;;
14235;SDS011;7202;50.718;7.072;2022-11-20T12:22:44;22.42;;;14.23;;
14235;SDS011;7202;50.718;7.072;2022-11-20T12:25:20;26.00;;;14.65;;
14235;SDS011;7202;50.718;7.072;2022-11-20T12:28:01;24.95;;;14.68;;
14235;SDS011;7202;50.718;7.072;2022-11-20T12:30:41;22.92;;;14.02;;
14235;SDS011;7202;50.718;7.072;2022-11-20T12:36:29;25.20;;;14.38;;
14235;SDS011;7202;50.718;7.072;2022-11-20T12:39:15;24.08;;;14.10;;
14235;SDS011;7202;50.718;7.072;2022-11-20T12:42:07;24.63;;;14.70;;
14235;SDS011;7202;50.718;7.072;2022-11-20T12:45:08;23.00;;;14.35;;
14235;SDS011;7202;50.718;7.072;2022-11-20T12:47:50;23.00;;;14.10;;
14235;SDS011;7202;50.718;7.072;2022-11-20T12:50:33;20.40;;;12.73;;
14235;SDS011;7202;50.718;7.072;2022-11-20T12:53:36;21.40;;;13.40;;
14235;SDS011;7202;50.718;7.072;2022-11-20T12:56:14;20.48;;;13.50;;
14235;SDS011;7202;50.718;7.072;2022-11-20T12:58:59;23.38;;;14.77;;
14235;SDS011;7202;50.718;7.072;2022-11-20T13:01:37;22.55;;;14.50;;
14235;SDS011;7202;50.718;7.072;2022-11-20T13:04:18;22.13;;;14.02;;
14235;SDS011;7202;50.718;7.072;2022-11-20T13:07:00;21.63;;;13.85;;
14235;SDS011;7202;50.718;7.072;2022-11-20T13:09:32;23.02;;;13.88;;
14235;SDS011;7202;50.718;7.072;2022-11-20T13:12:03;21.13;;;14.30;;
14235;SDS011;7202;50.718;7.072;2022-11-20T13:14:37;22.05;;;14.50;;
14235;SDS011;7202;50.718;7.072;2022-11-20T13:17:11;22.13;;;14.20;;
14235;SDS011;7202;50.718;7.072;2022-11-20T13:19:46;20.38;;;13.73;;
14235;SDS011;7202;50.718;7.072;2022-11-20T13:22:23;21.83;;;12.82;;
14235;SDS011;7202;50.718;7.072;2022-11-20T13:24:54;19.85;;;12.60;;
14235;SDS011;7202;50.718;7.072;2022-11-20T13:27:23;19.75;;;12.00;;
14235;SDS011;7202;50.718;7.072;2022-11-20T13:29:59;19.30;;;12.50;;
14235;SDS011;7202;50.718;7.072;2022-11-20T13:32:30;20.42;;;12.30;;
14235;SDS011;7202;50.718;7.072;2022-11-20T13:34:59;17.90;;;12.40;;
14235;SDS011;7202;50.718;7.072;2022-11-20T13:37:31;20.52;;;13.07;;
14235;SDS011;7202;50.718;7.072;2022-11-20T13:40:11;20.45;;;12.02;;
14235;SDS011;7202;50.718;7.072;2022-11-20T13:42:43;19.77;;;13.02;;
14235;SDS011;7202;50.718;7.072;2022-11-20T13:45:22;21.38;;;13.07;;
14235;SDS011;7202;50.718;7.072;2022-11-20T13:47:52;20.52;;;12.10;;
14235;SDS011;7202;50.718;7.072;2022-11-20T13:50:31;19.25;;;12.05;;
14235;SDS011;7202;50.718;7.072;2022-11-20T13:53:12;18.95;;;12.35;;
14235;SDS011;7202;50.718;7.072;2022-11-20T13:55:59;16.92;;;11.40;;
14235;SDS011;7202;50.718;7.072;2022-11-20T13:58:36;20.42;;;12.45;;
14235;SDS011;7202;50.718;7.072;2022-11-20T14:01:15;18.10;;;11.50;;
14235;SDS011;7202;50.718;7.072;2022-11-20T14:03:46;18.73;;;11.65;;
14235;SDS011;7202;50.718;7.072;2022-11-20T14:06:34;18.33;;;11.75;;
14235;SDS011;7202;50.718;7.072;2022-11-20T14:09:10;16.45;;;11.57;;
14235;SDS011;7202;50.718;7.072;2022-11-20T14:11:46;17.50;;;10.88;;
14235;SDS011;7202;50.718;7.072;2022-11-20T14:14:16;19.92;;;10.82;;
14235;SDS011;7202;50.718;7.072;2022-11-20T14:16:46;16.75;;;10.45;;
14235;SDS011;7202;50.718;7.072;2022-11-20T14:22:17;15.73;;;10.65;;
14235;SDS011;7202;50.718;7.072;2022-11-20T14:24:48;15.15;;;10.68;;
14235;SDS011;7202;50.718;7.072;2022-11-20T14:27:18;16.40;;;10.73;;
14235;SDS011;7202;50.718;7.072;2022-11-20T14:29:49;19.13;;;11.70;;
14235;SDS011;7202;50.718;7.072;2022-11-20T14:32:19;15.55;;;10.95;;
14235;SDS011;7202;50.718;7.072;2022-11-20T14:34:53;18.02;;;11.27;;
14235;SDS011;7202;50.718;7.072;2022-11-20T14:37:23;15.65;;;10.73;;
14235;SDS011;7202;50.718;7.072;2022-11-20T14:39:54;15.15;;;10.30;;
14235;SDS011;7202;50.718;7.072;2022-11-20T14:42:27;16.88;;;11.20;;
14235;SDS011;7202;50.718;7.072;2022-11-20T14:44:58;16.70;;;11.30;;
14235;SDS011;7202;50.718;7.072;2022-11-20T14:47:29;15.18;;;10.48;;
14235;SDS011;7202;50.718;7.072;2022-11-20T14:49:59;16.88;;;10.40;;
14235;SDS011;7202;50.718;7.072;2022-11-20T14:52:35;15.55;;;10.23;;
14235;SDS011;7202;50.718;7.072;2022-11-20T14:55:04;15.73;;;10.60;;
14235;SDS011;7202;50.718;7.072;2022-11-20T14:57:35;15.45;;;10.07;;
14235;SDS011;7202;50.718;7.072;2022-11-20T15:00:06;15.55;;;10.68;;
14235;SDS011;7202;50.718;7.072;2022-11-20T15:02:47;16.60;;;10.57;;
14235;SDS011;7202;50.718;7.072;2022-11-20T15:05:18;13.98;;;10.48;;
14235;SDS011;7202;50.718;7.072;2022-11-20T15:07:48;14.07;;;10.35;;
14235;SDS011;7202;50.718;7.072;2022-11-20T15:10:22;16.85;;;11.00;;
14235;SDS011;7202;50.718;7.072;2022-11-20T15:12:54;16.27;;;10.40;;
14235;SDS011;7202;50.718;7.072;2022-11-20T15:15:28;16.23;;;9.70;;
14235;SDS011;7202;50.718;7.072;2022-11-20T15:17:59;16.88;;;9.80;;